createdAt,value
2018-09-08T00:01:57.830Z,14.50
2018-09-08T00:04:29.494Z,14.40
2018-09-08T00:07:06.065Z,14.40
2018-09-08T00:09:37.808Z,14.50
2018-09-08T00:12:09.458Z,14.60
2018-09-08T00:14:39.970Z,14.60
2018-09-08T00:17:16.580Z,14.60
2018-09-08T00:19:53.261Z,14.70
2018-09-08T00:22:30.009Z,14.80
2018-09-08T00:25:06.651Z,14.80
2018-09-08T00:27:42.342Z,14.70
2018-09-08T00:30:15.108Z,14.70
2018-09-08T00:32:46.887Z,14.70
2018-09-08T00:35:18.674Z,14.60
2018-09-08T00:37:50.306Z,14.60
2018-09-08T00:40:22.578Z,14.60
2018-09-08T00:42:54.331Z,14.50
2018-09-08T00:45:26.086Z,14.50
2018-09-08T00:47:57.761Z,14.40
2018-09-08T00:50:29.610Z,14.40
2018-09-08T00:53:01.465Z,14.40
2018-09-08T00:55:33.261Z,14.40
2018-09-08T00:58:04.895Z,14.40
2018-09-08T01:00:36.740Z,14.50
2018-09-08T01:03:08.631Z,14.50
2018-09-08T01:05:40.286Z,14.50
2018-09-08T01:08:12.120Z,14.60
2018-09-08T01:10:43.906Z,14.60
2018-09-08T01:13:15.658Z,14.60
2018-09-08T01:15:47.500Z,14.70
2018-09-08T01:18:19.266Z,14.70
2018-09-08T01:20:50.961Z,14.80
2018-09-08T01:23:22.795Z,14.80
2018-09-08T01:25:54.638Z,14.80
2018-09-08T01:28:26.313Z,14.90
2018-09-08T01:30:58.050Z,15.00
2018-09-08T01:33:29.902Z,15.00
2018-09-08T01:36:01.708Z,15.10
2018-09-08T01:38:33.344Z,15.10
2018-09-08T01:41:05.224Z,15.10
2018-09-08T01:43:36.874Z,15.10
2018-09-08T01:46:08.870Z,15.10
2018-09-08T01:48:40.769Z,15.10
2018-09-08T01:51:12.509Z,15.10
2018-09-08T01:53:44.312Z,15.10
2018-09-08T01:56:16.153Z,15.10
2018-09-08T01:58:47.919Z,15.10
2018-09-08T02:01:19.708Z,15.00
2018-09-08T02:03:51.465Z,15.00
2018-09-08T02:06:23.224Z,15.00
2018-09-08T02:08:54.918Z,14.90
2018-09-08T02:11:26.850Z,14.90
2018-09-08T02:13:58.425Z,14.90
2018-09-08T02:16:30.237Z,14.90
2018-09-08T02:19:02.064Z,14.90
2018-09-08T02:21:33.757Z,14.90
2018-09-08T02:24:05.637Z,14.80
2018-09-08T02:26:37.470Z,14.90
2018-09-08T02:29:09.228Z,14.90
2018-09-08T02:31:40.913Z,14.90
2018-09-08T02:34:12.749Z,14.90
2018-09-08T02:36:44.511Z,14.90
2018-09-08T02:39:16.286Z,14.90
2018-09-08T02:41:48.230Z,15.00
2018-09-08T02:44:19.981Z,15.00
2018-09-08T02:46:51.776Z,15.00
2018-09-08T02:49:24.425Z,15.00
2018-09-08T02:51:53.506Z,15.00
2018-09-08T02:54:22.607Z,15.10
2018-09-08T02:56:51.701Z,15.10
2018-09-08T02:59:20.794Z,15.10
2018-09-08T03:01:49.836Z,15.10
2018-09-08T03:04:18.891Z,15.10
2018-09-08T03:06:47.985Z,15.10
2018-09-08T03:09:17.122Z,15.00
2018-09-08T03:11:46.228Z,14.90
2018-09-08T03:14:15.321Z,14.90
2018-09-08T03:16:44.370Z,14.90
2018-09-08T03:19:13.464Z,14.90
2018-09-08T03:21:42.566Z,14.80
2018-09-08T03:24:11.662Z,14.80
2018-09-08T03:26:40.750Z,14.80
2018-09-08T03:29:09.954Z,14.90
2018-09-08T03:31:38.994Z,14.80
2018-09-08T03:34:08.043Z,14.80
2018-09-08T03:36:37.142Z,14.70
2018-09-08T03:39:06.443Z,14.80
2018-09-08T03:41:36.097Z,14.80
2018-09-08T03:44:05.295Z,14.70
2018-09-08T03:46:34.392Z,14.70
2018-09-08T03:49:03.488Z,14.70
2018-09-08T03:51:32.584Z,14.60
2018-09-08T03:54:01.636Z,14.50
2018-09-08T03:56:30.678Z,14.50
2018-09-08T03:59:00.816Z,14.50
2018-09-08T04:01:29.891Z,14.50
2018-09-08T04:04:01.821Z,14.50
2018-09-08T04:06:33.596Z,14.50
2018-09-08T04:09:07.706Z,14.50
2018-09-08T04:11:39.676Z,14.50
2018-09-08T04:14:11.422Z,14.40
2018-09-08T04:16:43.203Z,14.40
2018-09-08T04:19:15.042Z,14.40
2018-09-08T04:21:46.798Z,14.50
2018-09-08T04:24:18.560Z,14.50
2018-09-08T04:26:51.132Z,14.50
2018-09-08T04:29:22.956Z,14.50
2018-09-08T04:31:54.890Z,14.50
2018-09-08T04:34:26.651Z,14.50
2018-09-08T04:36:58.272Z,14.50
2018-09-08T04:39:29.945Z,14.40
2018-09-08T04:42:01.610Z,14.40
2018-09-08T04:44:33.247Z,14.40
2018-09-08T04:47:05.121Z,14.40
2018-09-08T04:49:36.896Z,14.40
2018-09-08T04:52:08.545Z,14.30
2018-09-08T04:54:40.283Z,14.30
2018-09-08T04:57:11.948Z,14.20
2018-09-08T04:59:43.622Z,14.20
2018-09-08T05:02:15.451Z,14.20
2018-09-08T05:04:47.342Z,14.20
2018-09-08T05:07:19.104Z,14.20
2018-09-08T05:09:50.946Z,14.20
2018-09-08T05:12:22.686Z,14.20
2018-09-08T05:14:54.369Z,14.30
2018-09-08T05:17:26.101Z,14.30
2018-09-08T05:19:57.957Z,14.30
2018-09-08T05:22:29.789Z,14.40
2018-09-08T05:25:01.624Z,14.50
2018-09-08T05:27:33.554Z,14.50
2018-09-08T05:30:05.400Z,14.50
2018-09-08T05:32:37.273Z,14.50
2018-09-08T05:35:09.407Z,14.60
2018-09-08T05:37:40.998Z,14.40
2018-09-08T05:40:12.779Z,14.40
2018-09-08T05:42:44.551Z,14.40
2018-09-08T05:45:16.312Z,14.30
2018-09-08T05:47:47.950Z,14.30
2018-09-08T05:50:19.893Z,14.30
2018-09-08T05:52:51.682Z,14.30
2018-09-08T05:55:23.337Z,14.30
2018-09-08T05:57:55.103Z,14.40
2018-09-08T06:00:26.731Z,14.30
2018-09-08T06:02:58.505Z,14.40
2018-09-08T06:05:30.249Z,14.40
2018-09-08T06:08:02.150Z,14.50
2018-09-08T06:10:33.900Z,14.50
2018-09-08T06:13:05.581Z,14.50
2018-09-08T06:15:37.412Z,14.60
2018-09-08T06:18:09.183Z,14.70
2018-09-08T06:20:40.905Z,14.80
2018-09-08T06:23:12.561Z,14.90
2018-09-08T06:25:44.318Z,14.90
2018-09-08T06:28:16.095Z,15.00
2018-09-08T06:30:47.976Z,15.00
2018-09-08T06:33:19.810Z,15.00
2018-09-08T06:35:51.562Z,15.10
2018-09-08T06:38:23.348Z,15.10
2018-09-08T06:40:55.010Z,15.20
2018-09-08T06:43:26.865Z,15.30
2018-09-08T06:45:58.599Z,15.40
2018-09-08T06:48:30.264Z,15.40
2018-09-08T06:51:02.129Z,15.60
2018-09-08T06:53:34.007Z,15.60
2018-09-08T06:56:05.800Z,15.70
2018-09-08T06:58:37.612Z,15.70
2018-09-08T07:01:09.734Z,15.70
2018-09-08T07:03:41.414Z,15.70
2018-09-08T07:06:13.310Z,15.70
2018-09-08T07:08:45.166Z,15.70
2018-09-08T07:11:16.807Z,15.70
2018-09-08T07:13:48.574Z,15.80
2018-09-08T07:16:20.421Z,15.90
2018-09-08T07:18:52.196Z,16.10
2018-09-08T07:21:23.943Z,16.20
2018-09-08T07:23:55.697Z,16.20
2018-09-08T07:26:27.557Z,16.30
2018-09-08T07:28:59.290Z,16.50
2018-09-08T07:31:31.078Z,16.50
2018-09-08T07:34:02.748Z,16.60
2018-09-08T07:36:34.509Z,16.70
2018-09-08T07:39:08.913Z,16.70
2018-09-08T07:41:40.611Z,16.80
2018-09-08T07:44:12.431Z,16.80
2018-09-08T07:46:44.333Z,16.90
2018-09-08T07:49:16.001Z,17.10
2018-09-08T07:51:47.809Z,17.20
2018-09-08T07:54:19.559Z,17.20
2018-09-08T07:56:51.360Z,17.20
2018-09-08T07:59:23.249Z,17.30
2018-09-08T08:01:55.062Z,17.20
2018-09-08T08:04:26.715Z,17.00
2018-09-08T08:06:58.631Z,17.00
2018-09-08T08:09:30.427Z,17.00
2018-09-08T08:12:02.189Z,17.00
2018-09-08T08:14:33.932Z,17.10
2018-09-08T08:17:05.736Z,17.30
2018-09-08T08:19:38.046Z,17.60
2018-09-08T08:22:09.973Z,17.90
2018-09-08T08:24:41.718Z,18.10
2018-09-08T08:27:13.488Z,18.00
2018-09-08T08:29:45.162Z,18.00
2018-09-08T08:32:16.891Z,17.90
2018-09-08T08:34:48.637Z,17.80
2018-09-08T08:37:20.659Z,17.80
2018-09-08T08:39:52.483Z,17.90
2018-09-08T08:42:24.330Z,17.90
2018-09-08T08:44:56.212Z,17.90
2018-09-08T08:47:27.840Z,18.10
2018-09-08T08:50:15.554Z,18.40
2018-09-08T08:53:03.184Z,18.60
2018-09-08T08:55:34.865Z,19.00
2018-09-08T08:58:06.538Z,19.30
2018-09-08T09:00:38.277Z,19.40
2018-09-08T09:03:10.154Z,19.30
2018-09-08T09:05:42.008Z,19.20
2018-09-08T09:08:13.776Z,19.10
2018-09-08T09:10:45.417Z,19.20
2018-09-08T09:13:17.235Z,19.30
2018-09-08T09:16:00.580Z,19.50
2018-09-08T09:18:49.539Z,19.70
2018-09-08T09:21:37.635Z,19.90
2018-09-08T09:24:34.564Z,19.90
2018-09-08T09:27:06.121Z,20.10
2018-09-08T09:29:37.778Z,20.20
2018-09-08T09:32:09.649Z,20.30
2018-09-08T09:34:41.929Z,20.30
2018-09-08T09:37:13.889Z,20.50
2018-09-08T09:39:45.729Z,20.60
2018-09-08T09:42:17.479Z,20.60
2018-09-08T09:44:49.247Z,20.70
2018-09-08T09:47:20.961Z,20.70
2018-09-08T09:49:52.962Z,20.80
2018-09-08T09:52:26.377Z,21.00
2018-09-08T09:54:58.330Z,21.20
2018-09-08T09:57:30.119Z,21.20
2018-09-08T10:00:11.186Z,21.30
2018-09-08T10:03:17.664Z,21.50
2018-09-08T10:05:51.162Z,21.50
2018-09-08T10:08:22.958Z,21.40
2018-09-08T10:10:54.696Z,21.20
2018-09-08T10:13:26.812Z,21.00
2018-09-08T10:15:58.482Z,20.90
2018-09-08T10:18:30.494Z,21.00
2018-09-08T10:21:03.611Z,21.10
2018-09-08T10:23:35.455Z,21.40
2018-09-08T10:26:07.178Z,21.50
2018-09-08T10:28:38.942Z,21.60
2018-09-08T10:31:10.699Z,21.80
2018-09-08T10:33:42.459Z,21.90
2018-09-08T10:36:14.305Z,22.10
2018-09-08T10:38:46.155Z,22.20
2018-09-08T10:41:17.905Z,22.30
2018-09-08T10:43:49.679Z,22.40
2018-09-08T10:46:21.562Z,22.50
2018-09-08T10:48:53.489Z,22.70
2018-09-08T10:53:02.159Z,22.70
2018-09-08T10:55:33.847Z,22.60
2018-09-08T10:58:05.556Z,22.70
2018-09-08T11:00:37.406Z,22.70
2018-09-08T11:03:09.279Z,22.70
2018-09-08T11:05:41.055Z,22.70
2018-09-08T11:08:12.773Z,22.60
2018-09-08T11:10:44.446Z,22.50
2018-09-08T11:13:16.201Z,22.60
2018-09-08T11:15:48.092Z,22.70
2018-09-08T11:18:19.818Z,22.70
2018-09-08T11:20:51.489Z,22.80
2018-09-08T11:23:23.225Z,22.90
2018-09-08T11:25:55.020Z,22.90
2018-09-08T11:28:26.662Z,22.80
2018-09-08T11:30:58.402Z,22.80
2018-09-08T11:33:30.072Z,22.80
2018-09-08T11:36:01.822Z,22.90
2018-09-08T11:38:33.577Z,23.00
2018-09-08T11:41:05.357Z,23.10
2018-09-08T11:43:37.366Z,23.30
2018-09-08T11:46:09.290Z,23.30
2018-09-08T11:48:40.918Z,23.20
2018-09-08T11:51:12.547Z,23.20
2018-09-08T11:53:44.253Z,23.30
2018-09-08T11:56:16.026Z,23.30
2018-09-08T11:58:47.783Z,23.40
2018-09-08T12:01:19.500Z,23.50
2018-09-08T12:03:51.344Z,23.60
2018-09-08T12:06:22.942Z,23.70
2018-09-08T12:08:54.707Z,23.80
2018-09-08T12:11:26.565Z,23.90
2018-09-08T12:13:58.467Z,23.90
2018-09-08T12:16:30.158Z,23.90
2018-09-08T12:19:02.002Z,24.00
2018-09-08T12:21:33.695Z,24.00
2018-09-08T12:24:05.491Z,24.00
2018-09-08T12:26:37.403Z,24.10
2018-09-08T12:29:09.373Z,24.20
2018-09-08T12:31:41.161Z,24.20
2018-09-08T12:34:12.883Z,24.20
2018-09-08T12:36:44.854Z,24.30
2018-09-08T12:39:16.843Z,24.30
2018-09-08T12:41:48.593Z,24.20
2018-09-08T12:44:20.350Z,24.20
2018-09-08T12:46:52.095Z,24.40
2018-09-08T12:49:23.763Z,24.50
2018-09-08T12:51:55.418Z,24.50
2018-09-08T12:54:27.270Z,24.50
2018-09-08T12:56:58.935Z,24.60
2018-09-08T12:59:30.678Z,24.60
2018-09-08T13:02:02.433Z,24.60
2018-09-08T13:04:34.411Z,24.70
2018-09-08T13:07:06.194Z,24.80
2018-09-08T13:09:37.836Z,24.80
2018-09-08T13:12:09.991Z,24.90
2018-09-08T13:14:42.046Z,24.70
2018-09-08T13:17:13.693Z,24.70
2018-09-08T13:19:45.382Z,24.80
2018-09-08T13:22:17.082Z,24.90
2018-09-08T13:24:48.789Z,25.00
2018-09-08T13:27:20.594Z,25.10
2018-09-08T13:29:52.506Z,25.00
2018-09-08T13:32:24.166Z,24.70
2018-09-08T13:34:56.081Z,24.50
2018-09-08T13:37:27.878Z,24.50
2018-09-08T13:39:59.584Z,24.50
2018-09-08T13:42:31.330Z,24.50
2018-09-08T13:45:03.182Z,24.50
2018-09-08T13:47:34.954Z,24.70
2018-09-08T13:50:06.824Z,24.80
2018-09-08T13:52:38.680Z,25.00
2018-09-08T13:55:10.510Z,25.00
2018-09-08T13:57:42.157Z,25.00
2018-09-08T14:00:14.023Z,25.00
2018-09-08T14:02:45.894Z,25.00
2018-09-08T14:05:17.558Z,25.00
2018-09-08T14:07:54.041Z,25.00
2018-09-08T14:10:25.979Z,25.00
2018-09-08T14:12:57.765Z,24.90
2018-09-08T14:15:29.645Z,24.80
2018-09-08T14:18:01.376Z,24.80
2018-09-08T14:20:33.038Z,24.80
2018-09-08T14:23:04.788Z,24.70
2018-09-08T14:25:36.755Z,24.70
2018-09-08T14:28:08.491Z,24.70
2018-09-08T14:30:40.268Z,24.80
2018-09-08T14:33:12.011Z,24.90
2018-09-08T14:35:43.697Z,24.90
2018-09-08T14:38:15.453Z,24.90
2018-09-08T14:40:47.185Z,24.80
2018-09-08T14:43:18.867Z,24.80
2018-09-08T14:45:50.747Z,24.70
2018-09-08T14:48:22.697Z,24.70
2018-09-08T14:50:54.369Z,24.60
2018-09-08T14:53:26.187Z,24.50
2018-09-08T14:55:57.841Z,24.50
2018-09-08T14:58:29.611Z,24.40
2018-09-08T15:01:01.357Z,24.40
2018-09-08T15:03:33.217Z,24.30
2018-09-08T15:06:05.008Z,24.30
2018-09-08T15:08:36.862Z,24.20
2018-09-08T15:11:08.698Z,24.10
2018-09-08T15:13:40.462Z,24.10
2018-09-08T15:16:12.249Z,24.10
2018-09-08T15:18:44.094Z,24.00
2018-09-08T15:21:15.830Z,23.90
2018-09-08T15:23:47.490Z,23.90
2018-09-08T15:26:19.276Z,23.80
2018-09-08T15:28:51.023Z,23.80
2018-09-08T15:31:22.759Z,23.80
2018-09-08T15:33:54.729Z,23.80
2018-09-08T15:36:26.494Z,23.70
2018-09-08T15:38:58.275Z,23.70
2018-09-08T15:41:30.115Z,23.60
2018-09-08T15:44:01.777Z,23.60
2018-09-08T15:46:33.553Z,23.60
2018-09-08T15:49:05.431Z,23.50
2018-09-08T15:51:37.396Z,23.50
2018-09-08T15:54:10.159Z,23.50
2018-09-08T15:56:41.814Z,23.40
2018-09-08T15:59:13.567Z,23.40
2018-09-08T16:01:45.339Z,23.40
2018-09-08T16:04:17.203Z,23.30
2018-09-08T16:06:49.045Z,23.30
2018-09-08T16:09:20.818Z,23.20
2018-09-08T16:11:52.584Z,23.10
2018-09-08T16:14:24.377Z,23.00
2018-09-08T16:16:56.305Z,22.90
2018-09-08T16:19:27.946Z,22.90
2018-09-08T16:21:59.610Z,22.80
2018-09-08T16:24:31.376Z,22.70
2018-09-08T16:27:03.239Z,22.70
2018-09-08T16:29:34.937Z,22.60
2018-09-08T16:32:06.643Z,22.50
2018-09-08T16:34:38.382Z,22.50
2018-09-08T16:37:10.165Z,22.40
2018-09-08T16:39:41.906Z,22.30
2018-09-08T16:42:13.650Z,22.20
2018-09-08T16:44:45.552Z,22.10
2018-09-08T16:47:17.307Z,22.00
2018-09-08T16:49:48.941Z,22.00
2018-09-08T16:52:20.815Z,21.90
2018-09-08T16:54:52.465Z,21.90
2018-09-08T16:57:24.134Z,21.80
2018-09-08T16:59:55.907Z,21.70
2018-09-08T17:02:27.638Z,21.70
2018-09-08T17:04:59.413Z,21.60
2018-09-08T17:07:31.349Z,21.50
2018-09-08T17:10:03.126Z,21.50
2018-09-08T17:12:34.677Z,21.40
2018-09-08T17:15:06.882Z,21.30
2018-09-08T17:17:38.718Z,21.20
2018-09-08T17:20:10.462Z,21.10
2018-09-08T17:22:42.231Z,21.00
2018-09-08T17:25:13.965Z,20.90
2018-09-08T17:27:45.761Z,20.80
2018-09-08T17:30:17.512Z,20.70
2018-09-08T17:32:49.380Z,20.60
2018-09-08T17:35:21.018Z,20.60
2018-09-08T17:37:52.701Z,20.50
2018-09-08T17:40:24.555Z,20.40
2018-09-08T17:42:56.194Z,20.40
2018-09-08T17:45:27.972Z,20.30
2018-09-08T17:47:59.825Z,20.30
2018-09-08T17:50:31.665Z,20.20
2018-09-08T17:53:03.328Z,20.20
2018-09-08T17:55:35.180Z,20.00
2018-09-08T17:58:06.928Z,20.00
2018-09-08T18:00:39.298Z,19.90
2018-09-08T18:03:11.139Z,19.80
2018-09-08T18:05:43.225Z,19.80
2018-09-08T18:08:19.491Z,19.70
2018-09-08T18:10:51.295Z,19.60
2018-09-08T18:13:23.528Z,19.50
2018-09-08T18:15:55.406Z,19.40
2018-09-08T18:18:27.176Z,19.30
2018-09-08T18:20:58.914Z,19.20
2018-09-08T18:23:30.587Z,19.10
2018-09-08T18:26:02.351Z,19.00
2018-09-08T18:28:34.115Z,18.90
2018-09-08T18:31:05.763Z,18.80
2018-09-08T18:33:37.534Z,18.70
2018-09-08T18:36:10.072Z,18.60
2018-09-08T18:38:41.870Z,18.50
2018-09-08T18:41:13.634Z,18.40
2018-09-08T18:43:45.268Z,18.30
2018-09-08T18:46:17.122Z,18.20
2018-09-08T18:48:48.886Z,18.10
2018-09-08T18:51:20.768Z,18.00
2018-09-08T18:53:52.552Z,17.90
2018-09-08T18:56:24.568Z,17.80
2018-09-08T18:58:56.454Z,17.60
2018-09-08T19:01:28.214Z,17.50
2018-09-08T19:04:00.070Z,17.30
2018-09-08T19:06:31.914Z,17.00
2018-09-08T19:09:04.001Z,16.90
2018-09-08T19:11:35.933Z,16.80
2018-09-08T19:14:11.616Z,16.70
2018-09-08T19:16:43.446Z,16.60
2018-09-08T19:19:15.118Z,16.60
2018-09-08T19:21:46.911Z,16.60
2018-09-08T19:24:23.761Z,16.60
2018-09-08T19:26:55.598Z,16.60
2018-09-08T19:29:32.340Z,16.50
2018-09-08T19:32:04.033Z,16.50
2018-09-08T19:34:35.718Z,16.50
2018-09-08T19:37:07.770Z,16.50
2018-09-08T19:39:39.431Z,16.50
2018-09-08T19:42:11.094Z,16.40
2018-09-08T19:44:42.939Z,16.40
2018-09-08T19:48:19.541Z,16.30
2018-09-08T19:50:51.275Z,16.20
2018-09-08T19:53:27.757Z,16.10
2018-09-08T19:55:59.604Z,16.00
2018-09-08T19:58:36.162Z,16.00
2018-09-08T20:01:07.841Z,15.90
2018-09-08T20:03:39.565Z,15.90
2018-09-08T20:06:11.446Z,15.80
2018-09-08T20:08:43.191Z,15.80
2018-09-08T20:11:14.964Z,15.80
2018-09-08T20:13:46.880Z,15.70
2018-09-08T20:16:18.599Z,15.80
2018-09-08T20:18:50.209Z,15.80
2018-09-08T20:21:21.931Z,15.80
2018-09-08T20:23:53.631Z,15.70
2018-09-08T20:26:25.480Z,15.70
2018-09-08T20:28:57.210Z,15.60
2018-09-08T20:31:29.169Z,15.50
2018-09-08T20:34:00.854Z,15.30
2018-09-08T20:36:32.666Z,15.20
2018-09-08T20:39:05.010Z,15.10
2018-09-08T20:41:36.786Z,15.10
2018-09-08T20:44:08.683Z,15.00
2018-09-08T20:46:40.325Z,14.90
2018-09-08T20:49:12.038Z,14.70
2018-09-08T20:51:43.874Z,14.70
2018-09-08T20:54:15.701Z,14.60
2018-09-08T20:56:47.509Z,14.50
2018-09-08T20:59:19.406Z,14.30
2018-09-08T21:01:51.065Z,14.20
2018-09-08T21:04:22.746Z,14.20
2018-09-08T21:06:54.593Z,14.10
2018-09-08T21:09:26.547Z,14.10
2018-09-08T21:11:58.337Z,14.10
2018-09-08T21:14:30.078Z,14.10
2018-09-08T21:17:01.859Z,14.00
2018-09-08T21:19:33.520Z,14.00
2018-09-08T21:22:05.289Z,13.90
2018-09-08T21:24:36.917Z,13.90
2018-09-08T21:27:08.763Z,13.90
2018-09-08T21:29:40.433Z,13.80
2018-09-08T21:32:12.377Z,13.80
2018-09-08T21:34:44.047Z,13.70
2018-09-08T21:37:15.810Z,13.70
2018-09-08T21:39:47.559Z,13.60
2018-09-08T21:42:19.217Z,13.60
2018-09-08T21:44:50.913Z,13.60
2018-09-08T21:47:22.638Z,13.60
2018-09-08T21:49:54.290Z,13.60
2018-09-08T21:52:26.136Z,13.60
2018-09-08T21:54:57.937Z,13.60
2018-09-08T21:57:30.695Z,13.60
2018-09-08T22:00:02.446Z,13.60
2018-09-08T22:02:34.126Z,13.50
2018-09-08T22:05:06.093Z,13.60
2018-09-08T22:07:38.228Z,13.50
2018-09-08T22:10:10.369Z,13.50
2018-09-08T22:12:42.150Z,13.60
2018-09-08T22:15:13.937Z,13.50
2018-09-08T22:17:45.682Z,13.60
2018-09-08T22:20:17.344Z,13.60
2018-09-08T22:22:49.025Z,13.60
2018-09-08T22:25:20.855Z,13.60
2018-09-08T22:27:52.510Z,13.60
2018-09-08T22:30:24.257Z,13.60
2018-09-08T22:32:56.410Z,13.60
2018-09-08T22:35:28.228Z,13.60
2018-09-08T22:37:59.968Z,13.50
2018-09-08T22:40:31.743Z,13.50
2018-09-08T22:43:03.598Z,13.50
2018-09-08T22:45:35.364Z,13.40
2018-09-08T22:48:07.258Z,13.30
2018-09-08T22:50:39.717Z,13.20
2018-09-08T22:53:11.924Z,13.00
2018-09-08T22:55:43.702Z,12.80
2018-09-08T22:58:15.462Z,12.50
2018-09-08T23:00:47.129Z,12.30
2018-09-08T23:03:18.864Z,12.10
2018-09-08T23:05:50.737Z,12.00
2018-09-08T23:08:22.498Z,11.90
2018-09-08T23:10:54.169Z,12.00
2018-09-08T23:13:26.041Z,12.00
2018-09-08T23:15:57.678Z,12.10
2018-09-08T23:18:29.351Z,12.10
2018-09-08T23:21:01.114Z,12.20
2018-09-08T23:23:32.737Z,12.20
2018-09-08T23:26:04.510Z,12.30
2018-09-08T23:28:36.284Z,12.40
2018-09-08T23:31:08.032Z,12.50
2018-09-08T23:33:39.769Z,12.60
2018-09-08T23:36:11.438Z,12.60
2018-09-08T23:38:43.106Z,12.60
2018-09-08T23:41:14.858Z,12.50
2018-09-08T23:43:46.528Z,12.50
2018-09-08T23:46:18.372Z,12.40
2018-09-08T23:48:50.133Z,12.30
2018-09-08T23:51:21.814Z,12.10
2018-09-08T23:53:53.541Z,12.00
2018-09-08T23:56:25.405Z,11.90
2018-09-08T23:58:57.190Z,11.90
